< < Back
Terminal Aerodrome Forecast


Current Version              Previous Versions:   1  2  3  4  5  6  7  8  9  

Terminal Aerodrome Forecast

311
FTUS44 KBMX 190500
TAFBHM
TAF
KBHM 190523Z 1906/2006 VRB02KT P6SM SCT100 BKN250
     FM191800 12004KT P6SM BKN250=

Latest METAR

654
SAUS70 KWBC 191200 RRF
MTRBHM
METAR KBHM 191153Z 08005KT 10SM SCT150 BKN250 22/17 A3004 RMK AO2 SLP163
T02170167 10217 20211 53011


USA.gov is the U.S. government's official web portal to all federal, state and local government web resources and services.